Time;durP1;ratioP1;P1;durP2;ratioP2;P2;SDS_P1;SDS_P2;PMS_P1;PMS_P2;Temp;Humidity;BMP_temperature;BMP_pressure;BME280_temperature;BME280_humidity;BME280_pressure;Samples;Min_cycle;Max_cycle;Signal;HPM_P1;HPM_P2
2021/08/19 00:01:11;;;;;;;;;;;;;;;26.11;62.19;100950.81;5107642;28;1922;-61
2021/08/19 00:03:38;;;;;;;;;;;;;;;26.10;61.85;100943.78;5107834;28;814;-63
2021/08/19 00:06:05;;;;;;;;;;;;;;;26.06;60.00;100951.19;5107215;28;1357;-59
2021/08/19 00:08:32;;;;;;;;;;;;;;;25.98;60.75;100942.13;5107910;27;1004;-63
2021/08/19 00:10:59;;;;;;;;;;;;;;;25.89;62.28;100937.56;5106268;28;1334;-59
2021/08/19 00:13:26;;;;;;;;;;;;;;;25.93;61.92;100941.69;5140153;27;1405;-59
2021/08/19 00:15:54;;;;;;;;;;;;;;;25.91;61.92;100946.28;5105522;28;1311;-58
2021/08/19 00:18:21;;;;;;;;;;;;;;;25.90;61.34;100937.44;5107047;28;1098;-59
2021/08/19 00:20:48;;;;;;;;;;;;;;;25.91;62.87;100943.63;5107153;28;1910;-56
2021/08/19 00:23:15;;;;;;;;;;;;;;;25.87;62.51;100939.53;5107511;28;841;-60
2021/08/19 00:25:42;;;;;;;;;;;;;;;25.86;62.39;100944.03;5106617;28;1283;-60
2021/08/19 00:28:09;;;;;;;;;;;;;;;25.82;61.99;100939.91;5089104;28;1527;-58
2021/08/19 00:30:37;;;;;;;;;;;;;;;25.72;61.53;100941.63;5088737;28;1256;-58
2021/08/19 00:33:03;;;;;;;;;;;;;;;25.82;62.49;100941.72;5107738;28;1168;-58
2021/08/19 00:35:30;;;;;;;;;;;;;;;25.77;61.76;100933.25;5107294;28;1354;-60
2021/08/19 00:37:58;;;;;;;;;;;;;;;25.85;61.99;100933.47;5107279;28;825;-61
2021/08/19 00:40:25;;;;;;;;;;;;;;;25.83;62.56;100932.75;5106854;28;1988;-60
2021/08/19 00:42:53;;;;;;;;;;;;;;;25.76;62.83;100939.56;5105792;28;1365;-58
2021/08/19 00:45:21;;;;;;;;;;;;;;;25.76;61.69;100936.91;5106820;28;1524;-58
2021/08/19 00:47:48;;;;;;;;;;;;;;;25.72;62.57;100925.63;5106685;28;1540;-59
2021/08/19 00:50:14;;;;;;;;;;;;;;;25.66;62.04;100933.28;5106789;28;1325;-60
2021/08/19 00:52:42;;;;;;;;;;;;;;;25.65;63.79;100926.28;5106755;28;1625;-59
2021/08/19 00:55:10;;;;;;;;;;;;;;;25.74;62.68;100923.69;5106552;28;1278;-59
2021/08/19 00:57:39;;;;;;;;;;;;;;;25.60;63.04;100925.78;5106662;28;1001;-59
2021/08/19 01:00:07;;;;;;;;;;;;;;;25.63;62.76;100920.22;5106914;28;1914;-59
2021/08/19 01:02:34;;;;;;;;;;;;;;;25.71;63.17;100917.78;5086375;28;790;-60
2021/08/19 01:05:01;;;;;;;;;;;;;;;25.69;62.74;100927.69;5086671;28;1038;-59
2021/08/19 01:07:29;;;;;;;;;;;;;;;25.71;61.57;100915.09;5104906;28;820;-64
2021/08/19 01:09:55;;;;;;;;;;;;;;;25.71;61.55;100913.28;5112644;28;918;-63
2021/08/19 01:12:22;;;;;;;;;;;;;;;25.69;62.36;100917.88;5112303;28;1283;-64
2021/08/19 01:14:49;;;;;;;;;;;;;;;25.64;62.09;100905.91;5112350;28;1052;-64
2021/08/19 01:17:17;;;;;;;;;;;;;;;25.66;63.23;100907.47;5112681;28;1208;-63
2021/08/19 01:19:47;;;;;;;;;;;;;;;25.68;62.37;100902.03;5112840;28;1902;-61
2021/08/19 01:22:15;;;;;;;;;;;;;;;25.66;61.88;100903.94;5112773;28;1291;-63
2021/08/19 01:24:42;;;;;;;;;;;;;;;25.62;62.24;100898.06;5111716;28;948;-63
2021/08/19 01:27:13;;;;;;;;;;;;;;;25.62;62.69;100897.19;5111702;28;1236;-64
2021/08/19 01:29:41;;;;;;;;;;;;;;;25.61;62.72;100887.50;5111541;28;1112;-63
2021/08/19 01:32:09;;;;;;;;;;;;;;;25.53;63.91;100883.63;5112112;28;1212;-63
2021/08/19 01:34:35;;;;;;;;;;;;;;;25.52;63.50;100881.97;5111975;28;872;-63
2021/08/19 01:37:02;;;;;;;;;;;;;;;25.47;63.32;100892.09;5111803;28;1295;-63
2021/08/19 01:39:29;;;;;;;;;;;;;;;25.48;63.78;100884.97;5111893;28;1651;-63
2021/08/19 01:41:56;;;;;;;;;;;;;;;25.51;62.60;100877.59;5111835;28;2006;-64
2021/08/19 01:44:23;;;;;;;;;;;;;;;25.43;63.98;100884.50;5111674;28;1035;-63
2021/08/19 01:46:52;;;;;;;;;;;;;;;25.48;64.04;100872.50;5111850;28;1323;-63
2021/08/19 01:49:19;;;;;;;;;;;;;;;25.55;63.03;100872.84;5111851;28;924;-63
2021/08/19 01:51:47;;;;;;;;;;;;;;;25.57;63.20;100873.56;5111411;28;1363;-63
2021/08/19 01:54:13;;;;;;;;;;;;;;;25.50;61.77;100870.56;5111883;28;1021;-63
2021/08/19 01:56:40;;;;;;;;;;;;;;;25.51;62.75;100869.59;5111582;28;1211;-63
2021/08/19 01:59:07;;;;;;;;;;;;;;;25.54;62.95;100861.31;5092651;28;1416;-63
2021/08/19 02:01:34;;;;;;;;;;;;;;;25.50;63.04;100862.56;5111169;28;1913;-63
2021/08/19 02:04:02;;;;;;;;;;;;;;;25.51;62.04;100858.91;5111408;28;1039;-63
2021/08/19 02:06:29;;;;;;;;;;;;;;;25.56;61.94;100858.56;5126751;27;1267;-64
2021/08/19 02:08:56;;;;;;;;;;;;;;;25.56;62.80;100861.22;5091850;28;1404;-63
2021/08/19 02:11:24;;;;;;;;;;;;;;;25.34;63.90;100863.94;5126457;27;1338;-63
2021/08/19 02:13:50;;;;;;;;;;;;;;;25.50;62.65;100869.72;5110920;28;1055;-63
2021/08/19 02:16:17;;;;;;;;;;;;;;;25.48;62.20;100859.19;5111134;28;1252;-63
2021/08/19 02:18:44;;;;;;;;;;;;;;;25.47;63.26;100860.09;5110403;28;853;-63
2021/08/19 02:21:11;;;;;;;;;;;;;;;25.46;62.82;100861.09;5110983;28;1914;-63
2021/08/19 02:23:38;;;;;;;;;;;;;;;25.44;62.42;100855.03;5110796;28;1107;-63
2021/08/19 02:26:04;;;;;;;;;;;;;;;25.45;62.26;100848.72;5111137;28;1337;-64
2021/08/19 02:28:31;;;;;;;;;;;;;;;25.46;62.81;100858.44;5110959;28;1135;-63
2021/08/19 02:30:58;;;;;;;;;;;;;;;25.40;62.88;100850.94;5111058;28;1267;-62
2021/08/19 02:33:24;;;;;;;;;;;;;;;25.28;63.46;100849.31;5110768;28;762;-63
2021/08/19 02:35:51;;;;;;;;;;;;;;;25.35;62.84;100846.97;5111132;28;1200;-63
2021/08/19 02:38:18;;;;;;;;;;;;;;;25.39;61.91;100840.38;5111031;28;829;-64
2021/08/19 02:40:44;;;;;;;;;;;;;;;25.28;63.45;100843.97;5110316;28;1995;-64
2021/08/19 02:43:11;;;;;;;;;;;;;;;25.22;62.92;100841.81;5110534;28;1221;-64
2021/08/19 02:45:38;;;;;;;;;;;;;;;25.29;61.57;100837.63;5110566;28;1381;-64
2021/08/19 02:48:05;;;;;;;;;;;;;;;25.32;62.48;100832.06;5091827;28;1379;-63
2021/08/19 02:50:33;;;;;;;;;;;;;;;25.35;61.24;100831.78;5110632;28;1260;-63
2021/08/19 02:52:59;;;;;;;;;;;;;;;25.36;62.30;100830.84;5110708;28;841;-63
2021/08/19 02:55:26;;;;;;;;;;;;;;;25.35;62.37;100821.13;5091321;28;1271;-63
2021/08/19 02:57:53;;;;;;;;;;;;;;;25.37;60.98;100823.69;5110466;28;1140;-64
2021/08/19 03:00:20;;;;;;;;;;;;;;;25.37;61.36;100819.19;5110304;28;1902;-63
2021/08/19 03:02:47;;;;;;;;;;;;;;;25.23;62.18;100824.81;5110559;28;877;-63
2021/08/19 03:05:14;;;;;;;;;;;;;;;25.30;61.85;100818.00;5110320;28;1323;-62
2021/08/19 03:07:41;;;;;;;;;;;;;;;25.35;60.88;100814.97;5110169;28;832;-63
2021/08/19 03:10:08;;;;;;;;;;;;;;;25.34;61.41;100818.59;5091341;28;1261;-63
2021/08/19 03:12:36;;;;;;;;;;;;;;;25.30;60.93;100812.69;5110143;27;934;-64
2021/08/19 03:15:03;;;;;;;;;;;;;;;25.24;61.92;100815.84;5109709;28;1275;-64
2021/08/19 03:17:30;;;;;;;;;;;;;;;25.18;62.14;100812.84;5110261;27;823;-64
2021/08/19 03:19:56;;;;;;;;;;;;;;;25.19;60.94;100812.75;5109964;28;1244;-64
2021/08/19 03:22:23;;;;;;;;;;;;;;;25.22;61.36;100809.81;5109597;28;1910;-64
2021/08/19 03:24:50;;;;;;;;;;;;;;;25.13;61.88;100813.25;5110123;28;868;-62
2021/08/19 03:27:17;;;;;;;;;;;;;;;25.19;61.93;100825.22;5109454;28;1200;-63
2021/08/19 03:29:43;;;;;;;;;;;;;;;25.09;61.81;100819.78;5109713;28;1075;-64
2021/08/19 03:32:10;;;;;;;;;;;;;;;25.14;61.78;100824.75;5108714;28;1306;-64
2021/08/19 03:34:37;;;;;;;;;;;;;;;25.21;60.85;100829.44;5109966;28;1039;-63
2021/08/19 03:37:06;;;;;;;;;;;;;;;25.22;60.51;100831.16;5108325;28;1298;-63
2021/08/19 03:39:35;;;;;;;;;;;;;;;25.09;60.70;100835.78;5109395;28;1394;-63
2021/08/19 03:42:03;;;;;;;;;;;;;;;25.18;60.57;100829.69;5109241;28;1906;-64
2021/08/19 03:44:30;;;;;;;;;;;;;;;25.20;59.82;100833.06;5108973;28;1441;-64
2021/08/19 03:46:58;;;;;;;;;;;;;;;25.23;59.69;100826.66;5090810;28;1346;-64
2021/08/19 03:49:25;;;;;;;;;;;;;;;25.17;60.16;100832.50;5109006;28;1040;-63
2021/08/19 03:51:52;;;;;;;;;;;;;;;25.24;59.66;100829.19;5109183;28;1224;-64
2021/08/19 03:54:19;;;;;;;;;;;;;;;25.12;60.50;100835.53;5109529;28;1128;-64
2021/08/19 03:56:45;;;;;;;;;;;;;;;25.12;60.33;100837.34;5109665;28;1296;-64
2021/08/19 03:59:13;;;;;;;;;;;;;;;25.10;60.06;100839.31;5109448;28;1190;-63
2021/08/19 04:01:40;;;;;;;;;;;;;;;25.12;59.88;100840.88;5109034;28;1910;-64
2021/08/19 04:04:07;;;;;;;;;;;;;;;25.01;60.69;100838.25;5108910;28;1033;-64
2021/08/19 04:06:34;;;;;;;;;;;;;;;25.16;60.04;100831.66;5109053;28;1256;-64
2021/08/19 04:09:01;;;;;;;;;;;;;;;25.17;59.60;100833.31;5109042;28;1089;-64
2021/08/19 04:11:31;;;;;;;;;;;;;;;25.13;60.30;100839.06;5108977;28;1410;-64
2021/08/19 04:13:58;;;;;;;;;;;;;;;25.15;59.92;100840.63;5090534;28;1303;-64
2021/08/19 04:16:25;;;;;;;;;;;;;;;25.14;60.25;100848.75;5109033;28;1294;-64
2021/08/19 04:18:52;;;;;;;;;;;;;;;25.12;60.15;100843.53;5090141;28;1297;-64
2021/08/19 04:21:18;;;;;;;;;;;;;;;25.09;59.75;100841.13;5109167;28;1898;-64
2021/08/19 04:23:45;;;;;;;;;;;;;;;25.19;59.17;100842.06;5109080;28;781;-64
2021/08/19 04:26:12;;;;;;;;;;;;;;;25.19;58.82;100842.06;5108424;28;1251;-64
2021/08/19 04:28:39;;;;;;;;;;;;;;;25.21;58.79;100848.09;5108767;28;864;-64
2021/08/19 04:31:06;;;;;;;;;;;;;;;25.12;59.17;100843.53;5108965;28;1279;-64
2021/08/19 04:33:33;;;;;;;;;;;;;;;25.20;58.40;100838.41;5108700;28;790;-64
2021/08/19 04:36:00;;;;;;;;;;;;;;;25.16;58.99;100849.47;5108486;28;1287;-64
2021/08/19 04:38:27;;;;;;;;;;;;;;;25.16;59.41;100847.66;5088955;28;1194;-64
2021/08/19 04:40:54;;;;;;;;;;;;;;;25.14;59.25;100843.41;5108756;28;1963;-64
2021/08/19 04:43:21;;;;;;;;;;;;;;;25.14;58.83;100849.56;5108134;28;826;-64
2021/08/19 04:45:48;;;;;;;;;;;;;;;25.18;58.66;100845.69;5108615;28;1267;-64
2021/08/19 04:48:15;;;;;;;;;;;;;;;25.18;58.69;100851.03;5108123;28;917;-64
2021/08/19 04:50:42;;;;;;;;;;;;;;;25.14;59.67;100841.56;5108653;28;1283;-64
2021/08/19 04:53:08;;;;;;;;;;;;;;;25.10;59.78;100837.50;5108329;28;814;-64
2021/08/19 04:55:35;;;;;;;;;;;;;;;25.12;59.82;100830.19;5108419;28;1279;-65
2021/08/19 04:58:02;;;;;;;;;;;;;;;25.13;59.76;100834.56;5108589;28;849;-64
2021/08/19 05:00:28;;;;;;;;;;;;;;;25.15;60.29;100845.09;5108387;28;1267;-64
2021/08/19 05:02:55;;;;;;;;;;;;;;;25.15;60.29;100827.28;5107992;28;1906;-64
2021/08/19 05:05:23;;;;;;;;;;;;;;;25.13;61.06;100834.56;5108213;28;1568;-64
2021/08/19 05:07:50;;;;;;;;;;;;;;;25.08;61.25;100836.75;5108102;28;817;-64
2021/08/19 05:10:20;;;;;;;;;;;;;;;25.08;60.87;100836.75;5108363;28;1247;-64
2021/08/19 05:12:47;;;;;;;;;;;;;;;25.06;60.76;100840.50;5108206;28;763;-64
2021/08/19 05:15:14;;;;;;;;;;;;;;;25.04;61.19;100838.00;5108477;28;1334;-63
2021/08/19 05:17:41;;;;;;;;;;;;;;;25.09;61.11;100832.25;5108399;28;820;-64
2021/08/19 05:20:08;;;;;;;;;;;;;;;24.95;61.23;100830.75;5108231;28;1281;-64
2021/08/19 05:22:35;;;;;;;;;;;;;;;24.90;60.83;100836.44;5107895;28;1921;-64
2021/08/19 05:25:01;;;;;;;;;;;;;;;24.96;60.41;100835.94;5123552;28;1275;-62
2021/08/19 05:27:28;;;;;;;;;;;;;;;24.99;59.70;100837.50;5108162;28;876;-63
2021/08/19 05:29:55;;;;;;;;;;;;;;;24.97;60.29;100836.78;5107203;28;1013;-63
2021/08/19 05:32:21;;;;;;;;;;;;;;;24.94;60.06;100829.03;5107909;28;1295;-63
2021/08/19 05:34:48;;;;;;;;;;;;;;;24.84;60.59;100831.59;5108075;28;1113;-62
2021/08/19 05:37:15;;;;;;;;;;;;;;;24.87;60.23;100830.50;5107882;28;1224;-63
2021/08/19 05:39:42;;;;;;;;;;;;;;;24.93;60.02;100830.00;5107760;28;1561;-64
2021/08/19 05:42:08;;;;;;;;;;;;;;;24.94;60.09;100837.88;5107710;28;1985;-63
2021/08/19 05:44:36;;;;;;;;;;;;;;;25.00;59.67;100841.88;5108041;28;1028;-63
2021/08/19 05:47:04;;;;;;;;;;;;;;;24.86;60.23;100842.16;5107953;28;1322;-63
2021/08/19 05:49:33;;;;;;;;;;;;;;;24.92;59.56;100844.31;5107502;28;1459;-64
2021/08/19 05:51:59;;;;;;;;;;;;;;;24.95;59.51;100838.75;5107850;28;1318;-63
2021/08/19 05:54:26;;;;;;;;;;;;;;;24.91;59.67;100838.13;5090657;28;1062;-63
2021/08/19 05:56:53;;;;;;;;;;;;;;;24.88;59.82;100842.88;5111436;28;1236;-63
2021/08/19 05:59:19;;;;;;;;;;;;;;;24.80;59.98;100826.63;5111264;28;1179;-63
2021/08/19 06:01:46;;;;;;;;;;;;;;;24.92;59.25;100833.66;5111063;28;1894;-62
2021/08/19 06:04:13;;;;;;;;;;;;;;;24.85;59.13;100832.47;5111503;28;955;-63
2021/08/19 06:06:40;;;;;;;;;;;;;;;24.92;59.08;100833.66;5111655;28;1236;-64
2021/08/19 06:09:06;;;;;;;;;;;;;;;24.96;58.92;100829.75;5111310;28;1124;-62
2021/08/19 06:11:33;;;;;;;;;;;;;;;24.95;59.07;100836.09;5111521;28;1303;-63
2021/08/19 06:14:00;;;;;;;;;;;;;;;24.95;58.83;100823.59;5111018;28;1196;-63
2021/08/19 06:16:27;;;;;;;;;;;;;;;24.87;59.35;100827.84;5110387;28;1318;-61
2021/08/19 06:18:56;;;;;;;;;;;;;;;24.96;59.16;100829.75;5108611;28;1131;-63
2021/08/19 06:21:23;;;;;;;;;;;;;;;24.98;58.59;100828.69;5110055;28;1929;-63
2021/08/19 06:23:49;;;;;;;;;;;;;;;25.01;59.70;100838.25;5110143;28;1213;-63
2021/08/19 06:26:16;;;;;;;;;;;;;;;25.05;59.38;100836.19;5109922;28;1271;-63
2021/08/19 06:28:46;;;;;;;;;;;;;;;25.07;59.82;100836.88;5075136;28;1761;-64
2021/08/19 06:31:12;;;;;;;;;;;;;;;25.05;60.40;100844.19;5110035;28;1271;-64
2021/08/19 06:33:39;;;;;;;;;;;;;;;24.98;60.27;100847.34;5109928;28;991;-64
2021/08/19 06:36:07;;;;;;;;;;;;;;;25.04;59.25;100848.66;5108985;28;1251;-63
2021/08/19 06:38:34;;;;;;;;;;;;;;;25.04;59.83;100851.31;5125060;27;1695;-63
2021/08/19 06:41:00;;;;;;;;;;;;;;;25.06;59.65;100852.03;5109526;28;1813;-64
2021/08/19 06:43:27;;;;;;;;;;;;;;;25.08;60.11;100844.75;5109548;28;1909;-64
2021/08/19 06:45:54;;;;;;;;;;;;;;;25.07;60.12;100851.06;5109928;28;1270;-63
2021/08/19 06:48:21;;;;;;;;;;;;;;;25.06;60.11;100841.38;5109131;28;996;-64
2021/08/19 06:50:47;;;;;;;;;;;;;;;25.10;59.75;100840.16;5109583;28;1337;-63
2021/08/19 06:53:14;;;;;;;;;;;;;;;25.14;60.05;100841.56;5109392;28;911;-64
2021/08/19 06:55:41;;;;;;;;;;;;;;;25.14;59.80;100844.25;5109818;28;1369;-62
2021/08/19 06:58:07;;;;;;;;;;;;;;;25.17;59.00;100843.97;5124806;27;1379;-65
2021/08/19 07:00:34;;;;;;;;;;;;;;;25.18;60.03;100843.03;5109327;28;1275;-65
2021/08/19 07:03:01;;;;;;;;;;;;;;;25.15;60.54;100840.63;5108146;28;1973;-64
2021/08/19 07:05:28;;;;;;;;;;;;;;;25.17;60.43;100846.66;5108646;28;1549;-63
2021/08/19 07:07:59;;;;;;;;;;;;;;;25.21;60.22;100848.09;5108977;28;1434;-63
2021/08/19 07:10:25;;;;;;;;;;;;;;;25.21;59.82;100850.75;5124958;27;1417;-63
2021/08/19 07:12:53;;;;;;;;;;;;;;;25.24;60.77;100833.66;5108809;28;1301;-62
2021/08/19 07:15:21;;;;;;;;;;;;;;;25.21;60.91;100832.09;5108613;28;1533;-62
2021/08/19 07:17:47;;;;;;;;;;;;;;;25.25;60.95;100833.56;5109179;28;891;-62
2021/08/19 07:20:14;;;;;;;;;;;;;;;25.27;60.16;100838.75;5109229;28;1275;-64
2021/08/19 07:22:45;;;;;;;;;;;;;;;25.27;60.73;100836.09;5109011;28;2004;-64
2021/08/19 07:25:13;;;;;;;;;;;;;;;25.26;60.34;100832.56;5108985;28;1397;-63
2021/08/19 07:27:40;;;;;;;;;;;;;;;25.29;60.66;100832.31;5090262;28;1068;-63
2021/08/19 07:30:07;;;;;;;;;;;;;;;25.29;61.20;100834.97;5124077;27;1938;-62
2021/08/19 07:32:34;;;;;;;;;;;;;;;25.32;61.51;100833.91;5108634;28;860;-65
2021/08/19 07:35:01;;;;;;;;;;;;;;;25.32;60.81;100842.72;5108170;28;1526;-62
2021/08/19 07:37:27;;;;;;;;;;;;;;;25.34;59.28;100846.13;5109285;28;860;-63
2021/08/19 07:39:56;;;;;;;;;;;;;;;25.36;60.54;100846.84;5108857;28;1459;-64
2021/08/19 07:42:23;;;;;;;;;;;;;;;25.37;59.86;100848.53;5109493;28;1930;-65
2021/08/19 07:44:49;;;;;;;;;;;;;;;25.35;59.90;100846.97;5108320;28;1434;-64
2021/08/19 07:47:16;;;;;;;;;;;;;;;25.33;60.65;100847.09;5108092;28;1314;-64
2021/08/19 07:49:43;;;;;;;;;;;;;;;25.32;60.72;100848.06;5108320;28;1479;-64
2021/08/19 07:52:10;;;;;;;;;;;;;;;25.39;59.79;100848.41;5108470;28;1291;-64
2021/08/19 07:54:36;;;;;;;;;;;;;;;25.37;60.30;100851.19;5108097;28;1109;-64
2021/08/19 07:57:04;;;;;;;;;;;;;;;25.36;60.86;100860.16;5107991;28;1208;-65
2021/08/19 07:59:30;;;;;;;;;;;;;;;25.38;60.59;100860.88;5108044;28;1237;-64
2021/08/19 08:02:17;;;;;;;;;;;;;;;25.41;59.29;100862.47;5107695;28;1971;-62
2021/08/19 08:04:44;;;;;;;;;;;;;;;25.40;59.05;100855.44;5108189;27;1058;-63
2021/08/19 08:07:11;;;;;;;;;;;;;;;25.41;59.92;100857.94;5107544;28;1588;-62
2021/08/19 08:09:38;;;;;;;;;;;;;;;25.38;59.80;100852.88;5089110;28;1222;-62
2021/08/19 08:12:04;;;;;;;;;;;;;;;25.42;60.25;100853.47;5108199;28;1263;-60
2021/08/19 08:14:31;;;;;;;;;;;;;;;25.45;60.24;100854.06;5107646;28;1572;-60
2021/08/19 08:16:58;;;;;;;;;;;;;;;25.31;61.47;100857.03;5088421;28;1244;-61
2021/08/19 08:19:25;;;;;;;;;;;;;;;25.33;61.09;100863.09;5107684;28;1046;-60
2021/08/19 08:21:52;;;;;;;;;;;;;;;25.38;61.62;100852.88;5107425;28;1979;-56
2021/08/19 08:24:18;;;;;;;;;;;;;;;25.41;60.98;100857.94;5088997;28;1328;-58
2021/08/19 08:26:45;;;;;;;;;;;;;;;25.47;60.83;100849.44;5107249;28;1216;-59
2021/08/19 08:29:13;;;;;;;;;;;;;;;25.48;60.23;100852.97;5107759;28;1124;-59
2021/08/19 08:31:40;;;;;;;;;;;;;;;25.47;61.93;100852.09;5107484;28;1317;-65
2021/08/19 08:34:07;;;;;;;;;;;;;;;25.50;61.30;100851.06;5107734;28;1057;-63
2021/08/19 08:36:35;;;;;;;;;;;;;;;25.50;60.24;100851.06;5107551;28;1216;-62
2021/08/19 08:39:04;;;;;;;;;;;;;;;25.53;61.46;100848.97;5107922;28;1016;-62
2021/08/19 08:41:32;;;;;;;;;;;;;;;25.51;61.21;100853.59;5107758;28;1227;-62
2021/08/19 08:44:00;;;;;;;;;;;;;;;25.54;61.71;100863.16;5107898;28;1906;-60
2021/08/19 08:46:27;;;;;;;;;;;;;;;25.52;61.18;100859.78;5107708;28;1245;-60
2021/08/19 08:48:55;;;;;;;;;;;;;;;25.51;60.83;100864.25;5089722;28;961;-61
2021/08/19 08:51:23;;;;;;;;;;;;;;;25.52;61.37;100852.63;5108024;28;1248;-62
2021/08/19 08:53:50;;;;;;;;;;;;;;;25.58;61.30;100858.41;5107466;28;999;-63
2021/08/19 08:56:25;;;;;;;;;;;;;;;25.51;61.74;100858.91;5107155;28;1291;-59
2021/08/19 08:58:52;;;;;;;;;;;;;;;25.60;61.59;100859.13;5108081;28;1210;-62
2021/08/19 09:01:18;;;;;;;;;;;;;;;25.63;61.63;100866.84;5107696;28;1236;-60
2021/08/19 09:03:46;;;;;;;;;;;;;;;25.59;61.12;100868.09;5122528;28;1991;-62
2021/08/19 09:06:34;;;;;;;;;;;;;;;25.56;61.42;100871.88;5089417;28;1346;-65
2021/08/19 09:09:12;;;;;;;;;;;;;;;25.56;61.57;100879.03;5106191;28;903;-61
2021/08/19 09:11:42;;;;;;;;;;;;;;;25.48;61.96;100880.50;5108393;28;1373;-65
2021/08/19 09:14:20;;;;;;;;;;;;;;;25.53;61.54;100886.28;5107725;28;1043;-61
2021/08/19 09:16:47;;;;;;;;;;;;;;;25.51;61.69;100885.59;5087373;28;1836;-62
2021/08/19 09:19:19;;;;;;;;;;;;;;;25.62;62.29;100883.84;5087547;28;1506;-62
2021/08/19 09:22:06;;;;;;;;;;;;;;;25.70;61.95;100879.56;5106832;28;1184;-63
2021/08/19 09:24:34;;;;;;;;;;;;;;;25.68;63.09;100886.00;5108090;28;1136;-62
2021/08/19 09:27:10;;;;;;;;;;;;;;;25.79;62.98;100880.59;5089408;28;1280;-63
2021/08/19 09:29:36;;;;;;;;;;;;;;;25.83;62.84;100890.06;5124690;27;959;-66
2021/08/19 09:32:11;;;;;;;;;;;;;;;25.80;62.87;100885.84;5111474;28;1314;-67
2021/08/19 09:34:38;;;;;;;;;;;;;;;25.81;62.90;100887.50;5093763;28;994;-64
2021/08/19 09:37:16;;;;;;;;;;;;;;;25.74;63.00;100883.69;5127706;27;1578;-63
2021/08/19 09:39:42;;;;;;;;;;;;;;;25.70;63.31;100882.25;5126634;27;1460;-62
2021/08/19 09:42:10;;;;;;;;;;;;;;;25.70;63.67;100881.38;5111564;28;1976;-63
2021/08/19 09:44:37;;;;;;;;;;;;;;;25.70;63.26;100868.91;5111644;28;909;-63
2021/08/19 09:47:27;;;;;;;;;;;;;;;25.70;63.21;100878.72;5110814;28;1318;-64
2021/08/19 09:50:16;;;;;;;;;;;;;;;25.72;63.30;100866.94;5125952;27;1242;-65
2021/08/19 09:52:45;;;;;;;;;;;;;;;25.78;62.90;100876.25;5126399;27;1288;-63
2021/08/19 09:55:23;;;;;;;;;;;;;;;25.78;63.30;100873.56;5111040;28;1377;-65
2021/08/19 09:57:55;;;;;;;;;;;;;;;25.79;63.28;100873.47;5099535;27;1176;-65
2021/08/19 10:00:32;;;;;;;;;;;;;;;25.78;63.52;100882.44;5117180;27;1369;-64
2021/08/19 10:02:59;;;;;;;;;;;;;;;25.83;63.29;100880.25;5129614;27;1910;-62
2021/08/19 10:05:27;;;;;;;;;;;;;;;25.87;63.52;100884.31;5099222;28;1303;-62
2021/08/19 10:07:57;;;;;;;;;;;;;;;25.93;63.45;100882.97;5109832;28;838;-66
2021/08/19 10:10:25;;;;;;;;;;;;;;;25.99;63.51;100874.44;5091046;28;1260;-60
2021/08/19 10:13:00;;;;;;;;;;;;;;;26.02;62.99;100880.34;5113016;27;1525;-61
2021/08/19 10:15:28;;;;;;;;;;;;;;;26.04;63.56;100888.22;5129766;27;1193;-61
2021/08/19 10:18:04;;;;;;;;;;;;;;;26.04;63.59;100877.56;5130536;27;771;-65
2021/08/19 10:20:34;;;;;;;;;;;;;;;26.16;63.64;100881.03;5130548;27;1382;-60
2021/08/19 10:23:08;;;;;;;;;;;;;;;26.18;63.39;100879.91;5130255;27;2003;-60
2021/08/19 10:25:36;;;;;;;;;;;;;;;26.09;62.36;100880.66;5130470;27;1337;-63
2021/08/19 10:28:19;;;;;;;;;;;;;;;26.08;63.51;100871.00;5130123;27;896;-62
2021/08/19 10:31:06;;;;;;;;;;;;;;;26.10;63.22;100874.38;5112230;27;1256;-62
2021/08/19 10:33:36;;;;;;;;;;;;;;;26.08;63.36;100879.81;5109381;28;786;-61
2021/08/19 10:36:09;;;;;;;;;;;;;;;26.12;63.55;100883.06;5109718;28;1310;-60
2021/08/19 10:38:41;;;;;;;;;;;;;;;26.14;63.73;100883.81;5109810;28;759;-58
2021/08/19 10:41:28;;;;;;;;;;;;;;;26.17;63.27;100891.59;5107774;28;1606;-59
2021/08/19 10:44:03;;;;;;;;;;;;;;;26.18;63.52;100890.59;5109261;28;1979;-62
2021/08/19 10:46:39;;;;;;;;;;;;;;;26.14;63.22;100889.16;5090209;28;1580;-61
2021/08/19 10:49:06;;;;;;;;;;;;;;;26.11;62.76;100889.41;5108948;28;1029;-59
2021/08/19 10:51:33;;;;;;;;;;;;;;;26.09;63.88;100883.34;5108960;28;1188;-60
2021/08/19 10:54:21;;;;;;;;;;;;;;;26.04;62.37;100874.88;5109130;28;1092;-59
2021/08/19 10:56:49;;;;;;;;;;;;;;;26.02;63.75;100879.53;5108577;28;1307;-59
2021/08/19 10:59:29;;;;;;;;;;;;;;;26.02;63.57;100874.19;5108248;28;1509;-61
2021/08/19 11:02:02;;;;;;;;;;;;;;;25.99;64.19;100869.09;5105793;28;1335;-62
2021/08/19 11:04:44;;;;;;;;;;;;;;;26.06;63.46;100864.91;5078200;27;1906;-62
2021/08/19 11:07:51;;;;;;;;;;;;;;;26.04;64.08;100867.72;5145018;27;1357;-59
2021/08/19 11:10:22;;;;;;;;;;;;;;;26.04;64.10;100864.22;5064870;28;1267;-60
2021/08/19 11:12:50;;;;;;;;;;;;;;;26.02;64.27;100880.34;5065536;28;727;-62
2021/08/19 11:15:17;;;;;;;;;;;;;;;25.99;63.90;100885.94;5088847;27;1568;-61
2021/08/19 11:17:50;;;;;;;;;;;;;;;26.05;64.16;100887.28;5090363;28;1524;-64
2021/08/19 11:20:22;;;;;;;;;;;;;;;26.04;63.11;100888.22;5108901;28;1227;-62
2021/08/19 11:23:02;;;;;;;;;;;;;;;26.06;64.11;100875.59;5089957;28;1906;-63
2021/08/19 11:25:37;;;;;;;;;;;;;;;26.02;63.55;100887.53;5090205;28;1846;-63
2021/08/19 11:28:15;;;;;;;;;;;;;;;25.99;63.56;100895.81;5089381;28;1294;-63
2021/08/19 11:30:49;;;;;;;;;;;;;;;25.90;63.35;100892.06;5107785;28;1525;-64
2021/08/19 11:33:19;;;;;;;;;;;;;;;25.91;64.36;100882.25;5069226;28;1045;-63
2021/08/19 11:35:53;;;;;;;;;;;;;;;26.00;62.34;100862.78;5069832;28;1328;-63
2021/08/19 11:38:22;;;;;;;;;;;;;;;25.98;63.29;100867.41;5069488;28;1439;-63
2021/08/19 11:40:57;;;;;;;;;;;;;;;25.95;62.50;100873.84;5069399;28;1620;-62
2021/08/19 11:43:28;;;;;;;;;;;;;;;25.93;62.84;100869.63;5069566;28;1979;-62
2021/08/19 11:46:14;;;;;;;;;;;;;;;25.92;63.25;100873.25;5069500;28;1608;-63
2021/08/19 11:48:59;;;;;;;;;;;;;;;25.92;63.10;100873.25;5073987;28;1591;-61
2021/08/19 11:51:30;;;;;;;;;;;;;;;25.97;62.04;100877.22;5088788;28;1382;-64
2021/08/19 11:53:59;;;;;;;;;;;;;;;25.95;62.27;100887.19;5088678;28;1093;-61
2021/08/19 11:56:32;;;;;;;;;;;;;;;25.92;62.23;100878.59;5108218;28;1283;-61
2021/08/19 11:59:18;;;;;;;;;;;;;;;25.85;61.91;100883.59;5075295;28;1247;-63
2021/08/19 12:01:48;;;;;;;;;;;;;;;25.89;61.83;100884.19;5089362;28;1418;-62
2021/08/19 12:04:27;;;;;;;;;;;;;;;25.91;61.36;100890.25;5093511;27;1909;-65
2021/08/19 12:06:55;;;;;;;;;;;;;;;25.93;60.96;100893.66;5110100;27;1374;-63
2021/08/19 12:09:24;;;;;;;;;;;;;;;25.89;61.01;100895.72;5109669;27;1285;-63
2021/08/19 12:11:54;;;;;;;;;;;;;;;25.90;60.27;100902.75;5128448;27;1211;-63
2021/08/19 12:14:26;;;;;;;;;;;;;;;25.88;60.04;100899.38;5144519;27;1619;-63
2021/08/19 12:16:55;;;;;;;;;;;;;;;25.84;61.06;100897.09;5128112;27;1357;-60
2021/08/19 12:19:28;;;;;;;;;;;;;;;25.85;60.81;100890.75;5144110;27;1424;-60
2021/08/19 12:21:56;;;;;;;;;;;;;;;25.86;60.63;100877.31;5128222;27;1231;-62
2021/08/19 12:24:31;;;;;;;;;;;;;;;25.77;60.50;100879.91;5143409;27;1984;-62
2021/08/19 12:27:10;;;;;;;;;;;;;;;25.86;60.51;100869.31;5109578;27;1233;-61
2021/08/19 12:29:51;;;;;;;;;;;;;;;25.83;60.99;100853.56;5102117;28;1167;-61
2021/08/19 12:32:26;;;;;;;;;;;;;;;25.87;61.44;100857.63;5111458;27;1732;-61
2021/08/19 12:35:04;;;;;;;;;;;;;;;25.89;61.41;100876.19;5094182;28;1506;-61
2021/08/19 12:37:51;;;;;;;;;;;;;;;25.87;61.60;100876.31;5088189;28;920;-64
2021/08/19 12:40:25;;;;;;;;;;;;;;;25.85;61.23;100872.09;5086235;27;1342;-61
2021/08/19 12:43:02;;;;;;;;;;;;;;;25.87;61.62;100865.63;5109326;27;1909;-62
2021/08/19 12:45:37;;;;;;;;;;;;;;;25.92;61.94;100866.09;5111244;27;1306;-63
2021/08/19 12:48:05;;;;;;;;;;;;;;;25.90;61.40;100861.88;5085952;28;972;-65
2021/08/19 12:50:34;;;;;;;;;;;;;;;25.85;61.77;100861.41;5083623;28;1414;-62
2021/08/19 12:53:05;;;;;;;;;;;;;;;25.85;61.88;100864.06;5103373;28;1173;-62
2021/08/19 12:55:32;;;;;;;;;;;;;;;25.86;61.20;100860.44;5101680;28;1369;-62
2021/08/19 12:57:59;;;;;;;;;;;;;;;25.83;61.45;100864.22;5104751;28;1232;-63